createdAt,value
2023-04-16T00:00:52.594Z,83.14
2023-04-16T00:02:54.204Z,83.37
2023-04-16T00:04:55.990Z,83.32
2023-04-16T00:06:57.518Z,83.67
2023-04-16T00:08:59.032Z,83.00
2023-04-16T00:11:00.478Z,83.42
2023-04-16T00:13:01.981Z,83.32
2023-04-16T00:15:03.759Z,83.33
2023-04-16T00:17:05.335Z,83.83
2023-04-16T00:19:06.930Z,84.36
2023-04-16T00:21:08.589Z,83.92
2023-04-16T00:23:10.120Z,83.95
2023-04-16T00:25:11.637Z,83.75
2023-04-16T00:27:13.124Z,83.87
2023-04-16T00:29:14.601Z,83.44
2023-04-16T00:31:16.150Z,83.45
2023-04-16T00:33:17.862Z,83.21
2023-04-16T00:35:19.462Z,83.29
2023-04-16T00:37:21.084Z,82.90
2023-04-16T00:39:22.641Z,83.70
2023-04-16T00:41:24.193Z,83.34
2023-04-16T00:43:26.893Z,83.50
2023-04-16T00:45:28.380Z,83.31
2023-04-16T00:47:31.108Z,83.36
2023-04-16T00:49:32.636Z,83.48
2023-04-16T00:51:35.699Z,83.38
2023-04-16T00:53:37.995Z,83.70
2023-04-16T00:55:39.866Z,83.81
2023-04-16T00:57:41.333Z,83.71
2023-04-16T00:59:42.782Z,84.34
2023-04-16T01:01:44.257Z,83.97
2023-04-16T01:03:48.203Z,84.52
2023-04-16T01:05:50.578Z,84.53
2023-04-16T01:07:52.176Z,84.98
2023-04-16T01:09:53.693Z,84.46
2023-04-16T01:11:55.191Z,83.82
2023-04-16T01:13:56.650Z,84.95
2023-04-16T01:15:58.187Z,84.76
2023-04-16T01:17:59.788Z,84.10
2023-04-16T01:20:01.513Z,83.35
2023-04-16T01:22:03.950Z,83.75
2023-04-16T01:24:05.680Z,83.66
2023-04-16T01:26:07.189Z,83.60
2023-04-16T01:28:08.659Z,83.25
2023-04-16T01:30:10.582Z,83.21
2023-04-16T01:32:12.033Z,83.11
2023-04-16T01:34:13.531Z,83.48
2023-04-16T01:36:15.354Z,82.75
2023-04-16T01:38:17.218Z,82.95
2023-04-16T01:40:19.283Z,83.63
2023-04-16T01:42:20.744Z,83.28
2023-04-16T01:44:23.141Z,82.98
2023-04-16T01:46:29.057Z,83.01
2023-04-16T01:48:30.641Z,83.48
2023-04-16T01:50:32.232Z,83.76
2023-04-16T01:52:33.692Z,82.89
2023-04-16T01:54:35.155Z,82.91
2023-04-16T01:56:36.614Z,82.53
2023-04-16T01:58:38.585Z,83.08
2023-04-16T02:00:40.146Z,82.86
2023-04-16T02:02:41.855Z,82.36
2023-04-16T02:04:45.590Z,83.18
2023-04-16T02:06:47.120Z,82.53
2023-04-16T02:08:48.641Z,82.49
2023-04-16T02:10:50.596Z,82.29
2023-04-16T02:12:52.114Z,83.16
2023-04-16T02:14:53.685Z,82.95
2023-04-16T02:16:55.276Z,82.15
2023-04-16T02:18:56.842Z,82.72
2023-04-16T02:21:00.171Z,82.75
2023-04-16T02:23:01.752Z,82.62
2023-04-16T02:25:03.592Z,83.04
2023-04-16T02:27:05.116Z,83.09
2023-04-16T02:29:07.033Z,82.74
2023-04-16T02:31:08.568Z,82.68
2023-04-16T02:33:11.509Z,82.86
2023-04-16T02:35:13.015Z,82.86
2023-04-16T02:37:15.384Z,82.48
2023-04-16T02:39:16.877Z,82.65
2023-04-16T02:41:18.431Z,82.82
2023-04-16T02:43:19.916Z,82.89
2023-04-16T02:45:21.738Z,83.10
2023-04-16T02:47:23.251Z,82.60
2023-04-16T02:49:24.820Z,83.00
2023-04-16T02:51:26.446Z,82.48
2023-04-16T02:53:27.946Z,82.57
2023-04-16T02:55:30.517Z,82.85
2023-04-16T02:57:32.837Z,82.55
2023-04-16T02:59:34.293Z,82.77
2023-04-16T03:01:35.886Z,82.32
2023-04-16T03:03:37.417Z,82.36
2023-04-16T03:05:40.308Z,82.31
2023-04-16T03:07:41.987Z,82.70
2023-04-16T03:09:43.474Z,82.56
2023-04-16T03:11:44.973Z,82.38
2023-04-16T03:13:46.639Z,82.30
2023-04-16T03:15:49.888Z,82.26
2023-04-16T03:17:51.514Z,82.87
2023-04-16T03:19:52.984Z,82.43
2023-04-16T03:21:54.470Z,82.68
2023-04-16T03:23:56.098Z,82.71
2023-04-16T03:25:57.796Z,81.99
2023-04-16T03:27:59.233Z,82.15
2023-04-16T03:30:01.098Z,82.81
2023-04-16T03:32:02.611Z,82.70
2023-04-16T03:34:04.054Z,82.02
2023-04-16T03:36:05.993Z,82.55
2023-04-16T03:38:07.439Z,82.27
2023-04-16T03:40:09.100Z,82.76
2023-04-16T03:42:10.569Z,81.94
2023-04-16T03:44:12.037Z,82.59
2023-04-16T03:46:13.506Z,81.93
2023-04-16T03:48:15.877Z,82.49
2023-04-16T03:50:17.417Z,82.86
2023-04-16T03:52:18.886Z,82.49
2023-04-16T03:54:22.562Z,81.94
2023-04-16T03:56:24.577Z,82.67
2023-04-16T03:58:26.114Z,82.68
2023-04-16T04:00:27.618Z,82.39
2023-04-16T04:02:29.358Z,82.23
2023-04-16T04:04:31.070Z,82.64
2023-04-16T04:06:32.672Z,82.56
2023-04-16T04:08:34.158Z,82.06
2023-04-16T04:10:36.128Z,82.71
2023-04-16T04:12:37.594Z,82.32
2023-04-16T04:14:40.106Z,82.82
2023-04-16T04:16:41.756Z,82.61
2023-04-16T04:18:44.462Z,82.44
2023-04-16T04:20:46.137Z,81.94
2023-04-16T04:22:47.787Z,82.43
2023-04-16T04:24:49.251Z,82.43
2023-04-16T04:26:50.713Z,82.91
2023-04-16T04:28:52.175Z,82.80
2023-04-16T04:30:53.637Z,82.96
2023-04-16T04:32:55.146Z,82.74
2023-04-16T04:34:57.047Z,82.30
2023-04-16T04:36:59.348Z,82.72
2023-04-16T04:39:00.970Z,82.13
2023-04-16T04:41:02.418Z,82.25
2023-04-16T04:43:03.910Z,82.04
2023-04-16T04:45:06.195Z,82.38
2023-04-16T04:47:07.680Z,82.52
2023-04-16T04:49:09.367Z,81.77
2023-04-16T04:51:10.971Z,82.55
2023-04-16T04:53:14.737Z,82.01
2023-04-16T04:55:16.369Z,82.10
2023-04-16T04:57:17.845Z,82.32
2023-04-16T04:59:21.400Z,81.93
2023-04-16T05:01:22.880Z,82.38
2023-04-16T05:03:24.439Z,81.90
2023-04-16T05:05:26.007Z,82.15
2023-04-16T05:07:27.497Z,82.45
2023-04-16T05:09:28.967Z,82.26
2023-04-16T05:11:30.482Z,81.52
2023-04-16T05:13:31.999Z,81.75
2023-04-16T05:15:33.471Z,81.90
2023-04-16T05:17:34.936Z,81.37
2023-04-16T05:19:36.793Z,81.97
2023-04-16T05:21:38.287Z,81.62
2023-04-16T05:23:39.723Z,81.25
2023-04-16T05:25:41.225Z,81.05
2023-04-16T05:27:42.993Z,81.33
2023-04-16T05:29:44.478Z,81.76
2023-04-16T05:31:46.273Z,81.18
2023-04-16T05:33:47.745Z,80.74
2023-04-16T05:35:49.289Z,81.36
2023-04-16T05:37:50.749Z,81.72
2023-04-16T05:39:52.241Z,80.93
2023-04-16T05:41:53.728Z,81.10
2023-04-16T05:43:55.261Z,80.80
2023-04-16T05:45:56.875Z,80.79
2023-04-16T05:47:58.422Z,80.86
2023-04-16T05:49:59.884Z,80.83
2023-04-16T05:52:01.700Z,81.06
2023-04-16T05:54:03.287Z,81.04
2023-04-16T05:56:05.009Z,80.72
2023-04-16T05:58:06.518Z,80.52
2023-04-16T06:00:08.509Z,79.83
2023-04-16T06:02:10.084Z,79.94
2023-04-16T06:04:11.668Z,80.00
2023-04-16T06:06:13.394Z,80.00
2023-04-16T06:08:14.845Z,79.52
2023-04-16T06:10:16.457Z,79.11
2023-04-16T06:12:18.042Z,79.55
2023-04-16T06:14:19.681Z,80.11
2023-04-16T06:16:21.213Z,79.17
2023-04-16T06:18:22.698Z,80.15
2023-04-16T06:20:24.846Z,79.59
2023-04-16T06:22:26.562Z,79.91
2023-04-16T06:24:28.124Z,79.73
2023-04-16T06:26:29.588Z,79.94
2023-04-16T06:28:31.076Z,79.91
2023-04-16T06:30:32.637Z,79.00
2023-04-16T06:32:34.254Z,79.65
2023-04-16T06:34:35.975Z,79.42
2023-04-16T06:36:37.737Z,79.66
2023-04-16T06:38:39.265Z,80.01
2023-04-16T06:40:40.956Z,79.77
2023-04-16T06:42:45.313Z,79.47
2023-04-16T06:44:47.757Z,79.00
2023-04-16T06:46:50.888Z,79.17
2023-04-16T06:48:52.382Z,79.50
2023-04-16T06:50:54.952Z,79.83
2023-04-16T06:52:56.826Z,79.59
2023-04-16T06:54:58.628Z,79.49
2023-04-16T06:57:00.130Z,79.10
2023-04-16T06:59:01.582Z,79.70
2023-04-16T07:01:03.197Z,79.70
2023-04-16T07:03:04.889Z,78.64
2023-04-16T07:05:06.732Z,79.54
2023-04-16T07:07:08.741Z,78.92
2023-04-16T07:09:10.433Z,78.65
2023-04-16T07:11:12.154Z,78.53
2023-04-16T07:13:14.108Z,78.46
2023-04-16T07:15:15.700Z,78.03
2023-04-16T07:17:17.130Z,78.29
2023-04-16T07:19:18.572Z,78.30
2023-04-16T07:21:21.000Z,78.22
2023-04-16T07:23:22.440Z,77.44
2023-04-16T07:25:23.927Z,77.59
2023-04-16T07:27:25.480Z,77.22
2023-04-16T07:29:26.943Z,77.85
2023-04-16T07:31:28.512Z,77.34
2023-04-16T07:33:30.089Z,77.73
2023-04-16T07:35:31.815Z,77.54
2023-04-16T07:37:33.273Z,77.71
2023-04-16T07:39:34.788Z,77.75
2023-04-16T07:41:36.340Z,77.54
2023-04-16T07:43:37.778Z,77.53
2023-04-16T07:45:40.914Z,76.86
2023-04-16T07:47:42.903Z,77.02
2023-04-16T07:49:44.368Z,77.07
2023-04-16T07:51:45.871Z,76.69
2023-04-16T07:53:47.345Z,76.63
2023-04-16T07:55:48.849Z,77.31
2023-04-16T07:57:50.382Z,77.58
2023-04-16T07:59:51.900Z,77.23
2023-04-16T08:01:54.202Z,76.65
2023-04-16T08:03:56.000Z,76.49
2023-04-16T08:05:58.700Z,76.67
2023-04-16T08:08:00.266Z,76.76
2023-04-16T08:10:02.583Z,76.36
2023-04-16T08:12:04.486Z,76.26
2023-04-16T08:14:05.961Z,75.95
2023-04-16T08:16:07.764Z,75.50
2023-04-16T08:18:12.926Z,75.62
2023-04-16T08:20:17.632Z,75.08
2023-04-16T08:22:20.835Z,75.41
2023-04-16T08:24:22.547Z,75.05
2023-04-16T08:26:24.038Z,75.50
2023-04-16T08:28:25.647Z,76.06
2023-04-16T08:30:27.421Z,75.79
2023-04-16T08:32:28.941Z,75.29
2023-04-16T08:34:30.440Z,75.46
2023-04-16T08:36:32.048Z,75.26
2023-04-16T08:38:33.500Z,75.73
2023-04-16T08:40:39.062Z,75.93
2023-04-16T08:42:45.910Z,75.37
2023-04-16T08:44:49.864Z,75.47
2023-04-16T08:46:57.295Z,75.54
2023-04-16T08:49:00.332Z,75.27
2023-04-16T08:51:02.395Z,75.30
2023-04-16T08:53:06.545Z,74.99
2023-04-16T08:55:12.578Z,75.64
2023-04-16T08:57:19.052Z,75.05
2023-04-16T08:59:21.481Z,75.10
2023-04-16T09:01:25.383Z,75.13
2023-04-16T09:03:28.810Z,75.38
2023-04-16T09:05:31.611Z,75.19
2023-04-16T09:07:34.726Z,75.28
2023-04-16T09:09:39.138Z,75.46
2023-04-16T09:11:41.472Z,75.13
2023-04-16T09:13:43.238Z,74.92
2023-04-16T09:15:44.892Z,74.29
2023-04-16T09:17:46.499Z,74.04
2023-04-16T09:19:48.354Z,73.84
2023-04-16T09:21:49.976Z,73.61
2023-04-16T09:23:53.467Z,73.23
2023-04-16T09:25:56.569Z,73.38
2023-04-16T09:27:58.146Z,73.62
2023-04-16T09:29:59.716Z,73.33
2023-04-16T09:32:05.849Z,73.04
2023-04-16T09:34:09.120Z,73.16
2023-04-16T09:36:11.048Z,73.15
2023-04-16T09:38:12.528Z,73.13
2023-04-16T09:40:24.000Z,73.29
2023-04-16T09:42:27.423Z,73.53
2023-04-16T09:44:38.887Z,73.84
2023-04-16T09:46:43.549Z,73.69
2023-04-16T09:48:45.765Z,73.87
2023-04-16T09:50:51.274Z,74.00
2023-04-16T09:52:52.746Z,73.96
2023-04-16T09:54:54.630Z,73.56
2023-04-16T09:56:57.056Z,73.90
2023-04-16T09:59:00.578Z,74.06
2023-04-16T10:01:03.377Z,73.64
2023-04-16T10:03:06.064Z,73.56
2023-04-16T10:05:07.886Z,73.42
2023-04-16T10:07:09.351Z,73.20
2023-04-16T10:09:11.142Z,72.83
2023-04-16T10:11:13.512Z,73.05
2023-04-16T10:13:17.638Z,72.67
2023-04-16T10:15:19.231Z,72.26
2023-04-16T10:17:21.477Z,72.41
2023-04-16T10:19:23.581Z,72.86
2023-04-16T10:21:33.596Z,72.83
2023-04-16T10:23:35.546Z,71.88
2023-04-16T10:25:38.717Z,73.58
2023-04-16T10:27:41.213Z,73.81
2023-04-16T10:29:44.591Z,73.65
2023-04-16T10:31:47.643Z,73.66
2023-04-16T10:33:49.900Z,73.86
2023-04-16T10:36:01.393Z,73.25
2023-04-16T10:38:28.275Z,73.15
2023-04-16T10:40:29.804Z,73.03
2023-04-16T10:42:31.447Z,73.12
2023-04-16T10:44:33.525Z,73.64
2023-04-16T10:46:39.226Z,73.76
2023-04-16T10:48:49.595Z,73.34
2023-04-16T10:50:57.489Z,72.62
2023-04-16T10:53:23.454Z,73.18
2023-04-16T10:55:24.959Z,72.58
2023-04-16T10:57:29.662Z,72.81
2023-04-16T10:59:33.648Z,72.35
2023-04-16T11:01:37.489Z,71.92
2023-04-16T11:03:48.582Z,70.33
2023-04-16T11:05:50.523Z,70.84
2023-04-16T11:07:52.001Z,71.57
2023-04-16T11:10:13.714Z,71.71
2023-04-16T11:12:21.056Z,71.65
2023-04-16T11:14:22.562Z,71.86
2023-04-16T11:16:24.885Z,71.81
2023-04-16T11:18:26.519Z,72.17
2023-04-16T11:20:28.624Z,72.80
2023-04-16T11:22:30.762Z,72.31
2023-04-16T11:24:33.031Z,71.79
2023-04-16T11:26:34.522Z,71.73
2023-04-16T11:28:36.779Z,72.27
2023-04-16T11:30:39.470Z,72.55
2023-04-16T11:32:41.244Z,72.82
2023-04-16T11:34:46.015Z,72.72
2023-04-16T11:36:49.754Z,72.31
2023-04-16T11:38:51.478Z,71.97
2023-04-16T11:40:54.118Z,71.62
2023-04-16T11:42:55.705Z,71.85
2023-04-16T11:45:00.675Z,71.76
2023-04-16T11:47:07.339Z,72.26
2023-04-16T11:49:09.496Z,71.52
2023-04-16T11:51:11.481Z,71.52
2023-04-16T11:53:12.983Z,71.01
2023-04-16T11:55:14.569Z,71.50
2023-04-16T11:57:24.414Z,71.68
2023-04-16T11:59:27.165Z,71.71
2023-04-16T12:01:28.713Z,71.72
2023-04-16T12:03:44.240Z,71.63
2023-04-16T12:05:46.044Z,70.00
2023-04-16T12:07:47.521Z,71.70
2023-04-16T12:09:49.016Z,71.91
2023-04-16T12:11:50.790Z,71.51
2023-04-16T12:14:08.660Z,71.46
2023-04-16T12:16:19.841Z,71.15
2023-04-16T12:18:29.134Z,71.90
2023-04-16T12:20:40.056Z,72.16
2023-04-16T12:22:50.727Z,72.24
2023-04-16T12:24:56.987Z,72.39
2023-04-16T12:27:03.153Z,72.33
2023-04-16T12:29:16.974Z,72.45
2023-04-16T12:31:20.382Z,72.28
2023-04-16T12:33:21.924Z,67.55
2023-04-16T12:35:34.005Z,71.74
2023-04-16T12:37:35.829Z,72.38
2023-04-16T12:39:37.313Z,72.73
2023-04-16T12:41:40.688Z,72.88
2023-04-16T12:43:42.205Z,72.91
2023-04-16T12:45:43.713Z,73.23
2023-04-16T12:47:45.528Z,73.99
2023-04-16T12:49:47.030Z,73.80
2023-04-16T12:51:49.127Z,74.06
2023-04-16T12:53:50.685Z,74.29
2023-04-16T12:55:52.238Z,74.66
2023-04-16T12:57:54.435Z,74.60
2023-04-16T12:59:57.168Z,74.83
2023-04-16T13:02:00.484Z,74.89
2023-04-16T13:04:02.175Z,74.86
2023-04-16T13:06:04.365Z,75.19
2023-04-16T13:08:06.013Z,75.34
2023-04-16T13:10:08.147Z,75.55
2023-04-16T13:12:09.611Z,75.51
2023-04-16T13:14:11.097Z,75.54
2023-04-16T13:16:12.713Z,76.15
2023-04-16T13:18:14.251Z,75.90
2023-04-16T13:20:15.767Z,76.25
2023-04-16T13:22:17.302Z,76.04
2023-04-16T13:24:21.611Z,75.71
2023-04-16T13:26:23.080Z,75.92
2023-04-16T13:28:24.537Z,75.77
2023-04-16T13:30:26.112Z,76.10
2023-04-16T13:32:27.617Z,76.36
2023-04-16T13:34:29.223Z,76.36
2023-04-16T13:36:32.215Z,76.28
2023-04-16T13:38:33.750Z,75.96
2023-04-16T13:40:35.286Z,75.93
2023-04-16T13:42:36.744Z,75.89
2023-04-16T13:44:38.236Z,75.43
2023-04-16T13:46:39.850Z,75.11
2023-04-16T13:48:41.408Z,75.18
2023-04-16T13:50:42.902Z,74.75
2023-04-16T13:52:44.388Z,74.96
2023-04-16T13:54:45.934Z,74.90
2023-04-16T13:56:47.474Z,74.68
2023-04-16T13:58:49.311Z,75.13
2023-04-16T14:00:51.080Z,74.86
2023-04-16T14:02:53.266Z,74.96
2023-04-16T14:04:54.845Z,75.07
2023-04-16T14:06:56.348Z,74.74
2023-04-16T14:08:57.820Z,75.16
2023-04-16T14:10:59.324Z,75.18
2023-04-16T14:13:00.944Z,75.02
2023-04-16T14:15:04.406Z,74.56
2023-04-16T14:17:07.507Z,74.98
2023-04-16T14:19:09.722Z,75.22
2023-04-16T14:21:11.606Z,75.42
2023-04-16T14:23:13.116Z,75.21
2023-04-16T14:25:14.615Z,74.90
2023-04-16T14:27:16.995Z,74.90
2023-04-16T14:29:18.503Z,74.75
2023-04-16T14:31:20.604Z,74.56
2023-04-16T14:33:22.192Z,74.55
2023-04-16T14:35:23.806Z,74.72
2023-04-16T14:37:26.270Z,74.68
2023-04-16T14:39:27.820Z,74.74
2023-04-16T14:41:30.397Z,74.73
2023-04-16T14:43:31.874Z,74.58
2023-04-16T14:45:33.485Z,74.75
2023-04-16T14:47:36.828Z,73.16
2023-04-16T14:49:38.353Z,73.67
2023-04-16T14:51:40.490Z,73.77
2023-04-16T14:53:42.061Z,74.82
2023-04-16T14:55:44.102Z,71.65
2023-04-16T14:57:45.564Z,74.97
2023-04-16T14:59:48.324Z,75.88
2023-04-16T15:01:51.009Z,76.07
2023-04-16T15:03:52.836Z,76.33
2023-04-16T15:05:57.278Z,76.14
2023-04-16T15:07:58.798Z,76.09
2023-04-16T15:10:00.325Z,76.31
2023-04-16T15:12:01.846Z,76.88
2023-04-16T15:14:03.321Z,77.11
2023-04-16T15:16:05.309Z,77.58
2023-04-16T15:18:06.900Z,77.70
2023-04-16T15:20:09.059Z,77.35
2023-04-16T15:22:10.499Z,77.69
2023-04-16T15:24:12.278Z,78.02
2023-04-16T15:26:13.848Z,78.38
2023-04-16T15:28:15.897Z,78.50
2023-04-16T15:30:17.621Z,78.44
2023-04-16T15:32:19.151Z,78.70
2023-04-16T15:34:20.674Z,78.75
2023-04-16T15:36:22.659Z,78.49
2023-04-16T15:38:24.118Z,78.69
2023-04-16T15:40:25.650Z,79.07
2023-04-16T15:42:27.100Z,78.75
2023-04-16T15:44:30.365Z,78.91
2023-04-16T15:46:32.069Z,78.99
2023-04-16T15:48:33.593Z,78.89
2023-04-16T15:50:35.229Z,78.91
2023-04-16T15:52:38.630Z,78.97
2023-04-16T15:54:40.831Z,79.12
2023-04-16T15:56:42.335Z,79.05
2023-04-16T15:58:43.892Z,78.90
2023-04-16T16:00:49.665Z,78.32
2023-04-16T16:02:51.474Z,78.82
2023-04-16T16:04:53.052Z,78.60
2023-04-16T16:06:54.695Z,78.93
2023-04-16T16:08:56.715Z,78.74
2023-04-16T16:10:58.189Z,78.69
2023-04-16T16:13:05.167Z,78.45
2023-04-16T16:15:07.250Z,78.55
2023-04-16T16:17:08.720Z,78.81
2023-04-16T16:19:10.723Z,79.01
2023-04-16T16:21:12.259Z,78.72
2023-04-16T16:23:13.819Z,78.47
2023-04-16T16:25:15.312Z,78.75
2023-04-16T16:27:17.850Z,78.70
2023-04-16T16:29:19.327Z,78.40
2023-04-16T16:31:20.980Z,78.08
2023-04-16T16:33:22.631Z,78.37
2023-04-16T16:35:26.010Z,78.06
2023-04-16T16:37:29.160Z,78.03
2023-04-16T16:39:31.810Z,78.51
2023-04-16T16:41:37.583Z,78.50
2023-04-16T16:43:39.066Z,78.08
2023-04-16T16:45:40.753Z,78.62
2023-04-16T16:47:42.322Z,78.27
2023-04-16T16:49:44.660Z,78.41
2023-04-16T16:51:47.395Z,78.49
2023-04-16T16:53:48.860Z,78.17
2023-04-16T16:55:50.306Z,78.60
2023-04-16T16:57:51.963Z,78.03
2023-04-16T16:59:54.510Z,78.66
2023-04-16T17:01:56.310Z,78.05
2023-04-16T17:03:57.923Z,78.50
2023-04-16T17:05:59.612Z,78.51
2023-04-16T17:08:01.261Z,78.56
2023-04-16T17:10:05.273Z,78.51
2023-04-16T17:12:08.144Z,78.82
2023-04-16T17:14:09.608Z,79.03
2023-04-16T17:16:11.886Z,79.04
2023-04-16T17:18:13.561Z,78.77
2023-04-16T17:20:15.638Z,79.24
2023-04-16T17:22:17.414Z,79.66
2023-04-16T17:24:18.935Z,79.42
2023-04-16T17:26:20.471Z,79.15
2023-04-16T17:28:22.026Z,79.30
2023-04-16T17:30:25.834Z,79.67
2023-04-16T17:32:28.220Z,79.64
2023-04-16T17:34:29.786Z,79.94
2023-04-16T17:36:31.365Z,79.60
2023-04-16T17:38:33.778Z,79.57
2023-04-16T17:40:35.326Z,80.00
2023-04-16T17:42:37.043Z,79.97
2023-04-16T17:44:38.561Z,80.01
2023-04-16T17:46:40.031Z,80.29
2023-04-16T17:48:41.555Z,80.53
2023-04-16T17:50:43.013Z,80.56
2023-04-16T17:52:44.604Z,80.30
2023-04-16T17:54:46.146Z,80.33
2023-04-16T17:56:47.615Z,80.76
2023-04-16T17:58:49.063Z,80.66
2023-04-16T18:00:50.651Z,80.79
2023-04-16T18:02:52.755Z,80.95
2023-04-16T18:04:54.455Z,81.15
2023-04-16T18:06:56.140Z,80.83
2023-04-16T18:08:57.697Z,80.98
2023-04-16T18:10:59.245Z,81.39
2023-04-16T18:13:00.720Z,80.99
2023-04-16T18:15:02.227Z,81.24
2023-04-16T18:17:06.348Z,81.37
2023-04-16T18:19:08.299Z,81.23
2023-04-16T18:21:10.146Z,81.15
2023-04-16T18:23:11.643Z,81.57
2023-04-16T18:25:13.159Z,81.49
2023-04-16T18:27:14.653Z,81.48
2023-04-16T18:29:17.723Z,81.57
2023-04-16T18:31:21.436Z,81.42
2023-04-16T18:33:48.645Z,81.45
2023-04-16T18:35:44.519Z,81.71
2023-04-16T18:37:46.764Z,81.41
2023-04-16T18:39:48.261Z,81.44
2023-04-16T18:41:49.847Z,81.44
2023-04-16T18:43:51.751Z,81.71
2023-04-16T18:45:53.288Z,81.75
2023-04-16T18:47:58.446Z,81.64
2023-04-16T18:50:00.041Z,81.90
2023-04-16T18:52:01.856Z,81.89
2023-04-16T18:54:03.379Z,81.98
2023-04-16T18:56:05.318Z,81.76
2023-04-16T18:58:06.940Z,81.81
2023-04-16T19:00:12.809Z,82.07
2023-04-16T19:02:14.466Z,82.10
2023-04-16T19:04:16.533Z,81.95
2023-04-16T19:06:18.127Z,82.00
2023-04-16T19:08:20.022Z,82.10
2023-04-16T19:10:21.560Z,82.17
2023-04-16T19:12:23.270Z,82.13
2023-04-16T19:14:24.736Z,82.23
2023-04-16T19:16:26.279Z,82.18
2023-04-16T19:18:28.058Z,82.29
2023-04-16T19:20:29.667Z,82.29
2023-04-16T19:22:31.353Z,82.21
2023-04-16T19:24:34.230Z,82.49
2023-04-16T19:26:37.284Z,82.29
2023-04-16T19:28:39.052Z,82.27
2023-04-16T19:30:40.714Z,82.37
2023-04-16T19:32:42.304Z,82.06
2023-04-16T19:34:43.787Z,82.40
2023-04-16T19:36:45.932Z,82.60
2023-04-16T19:38:47.426Z,82.55
2023-04-16T19:40:48.986Z,82.34
2023-04-16T19:42:50.598Z,82.33
2023-04-16T19:44:52.146Z,82.61
2023-04-16T19:46:53.744Z,82.66
2023-04-16T19:48:56.796Z,82.49
2023-04-16T19:51:03.009Z,82.64
2023-04-16T19:53:04.494Z,82.62
2023-04-16T19:55:07.036Z,82.45
2023-04-16T19:57:08.825Z,82.50
2023-04-16T19:59:10.536Z,82.70
2023-04-16T20:01:12.237Z,82.53
2023-04-16T20:03:13.835Z,82.44
2023-04-16T20:05:15.612Z,82.49
2023-04-16T20:07:17.629Z,82.87
2023-04-16T20:09:20.183Z,82.71
2023-04-16T20:11:21.688Z,82.57
2023-04-16T20:13:23.325Z,82.78
2023-04-16T20:15:24.820Z,82.71
2023-04-16T20:17:26.599Z,82.73
2023-04-16T20:19:34.068Z,82.96
2023-04-16T20:21:35.848Z,82.93
2023-04-16T20:23:37.350Z,82.94
2023-04-16T20:25:46.149Z,82.83
2023-04-16T20:27:47.635Z,82.77
2023-04-16T20:29:49.158Z,82.90
2023-04-16T20:31:50.636Z,82.96
2023-04-16T20:33:52.626Z,82.79
2023-04-16T20:35:54.476Z,82.82
2023-04-16T20:37:55.968Z,82.69
2023-04-16T20:39:57.392Z,82.66
2023-04-16T20:41:58.871Z,82.98
2023-04-16T20:44:05.322Z,82.84
2023-04-16T20:46:12.757Z,82.96
2023-04-16T20:48:14.468Z,82.81
2023-04-16T20:50:16.097Z,82.66
2023-04-16T20:52:17.593Z,82.71
2023-04-16T20:54:19.096Z,82.77
2023-04-16T20:56:20.892Z,82.91
2023-04-16T20:58:22.737Z,82.62
2023-04-16T21:00:24.392Z,82.60
2023-04-16T21:02:28.349Z,82.78
2023-04-16T21:04:30.292Z,83.00
2023-04-16T21:06:32.959Z,82.75
2023-04-16T21:08:34.634Z,82.60
2023-04-16T21:10:36.101Z,82.55
2023-04-16T21:12:37.690Z,82.87
2023-04-16T21:14:39.193Z,83.15
2023-04-16T21:16:40.797Z,82.93
2023-04-16T21:18:42.331Z,82.84
2023-04-16T21:20:44.380Z,82.73
2023-04-16T21:22:46.045Z,82.81
2023-04-16T21:24:47.499Z,82.81
2023-04-16T21:26:48.951Z,82.79
2023-04-16T21:28:50.411Z,83.10
2023-04-16T21:30:52.414Z,82.43
2023-04-16T21:32:53.969Z,83.02
2023-04-16T21:34:55.803Z,83.12
2023-04-16T21:36:57.330Z,82.63
2023-04-16T21:38:58.951Z,82.82
2023-04-16T21:41:01.413Z,82.56
2023-04-16T21:43:03.237Z,83.37
2023-04-16T21:45:05.440Z,82.47
2023-04-16T21:47:06.938Z,82.75
2023-04-16T21:49:08.494Z,83.01
2023-04-16T21:51:10.068Z,82.83
2023-04-16T21:53:11.902Z,82.75
2023-04-16T21:55:14.408Z,83.37
2023-04-16T21:57:16.079Z,82.91
2023-04-16T21:59:17.558Z,83.50
2023-04-16T22:01:19.148Z,83.45
2023-04-16T22:03:26.214Z,83.44
2023-04-16T22:05:28.945Z,83.54
2023-04-16T22:07:30.563Z,83.58
2023-04-16T22:09:32.550Z,83.56
2023-04-16T22:11:33.980Z,83.06
2023-04-16T22:13:36.646Z,83.52
2023-04-16T22:15:38.336Z,82.84
2023-04-16T22:17:40.542Z,83.08
2023-04-16T22:19:42.408Z,83.42
2023-04-16T22:21:44.180Z,83.01
2023-04-16T22:23:46.152Z,83.17
2023-04-16T22:25:47.690Z,83.40
2023-04-16T22:27:49.205Z,83.22
2023-04-16T22:29:50.813Z,83.25
2023-04-16T22:31:52.534Z,82.92
2023-04-16T22:33:54.031Z,83.44
2023-04-16T22:35:55.594Z,83.05
2023-04-16T22:37:57.107Z,83.57
2023-04-16T22:39:58.690Z,83.82
2023-04-16T22:42:00.680Z,83.36
2023-04-16T22:44:02.440Z,83.40
2023-04-16T22:46:06.300Z,82.99
2023-04-16T22:48:07.984Z,83.28
2023-04-16T22:50:10.790Z,83.78
2023-04-16T22:52:12.268Z,83.35
2023-04-16T22:54:14.079Z,83.58
2023-04-16T22:56:15.628Z,83.49
2023-04-16T22:58:17.522Z,84.03
2023-04-16T23:00:19.393Z,83.33
2023-04-16T23:02:21.467Z,83.35
2023-04-16T23:04:23.112Z,83.78
2023-04-16T23:06:24.708Z,83.68
2023-04-16T23:08:26.183Z,83.17
2023-04-16T23:10:27.751Z,83.53
2023-04-16T23:12:29.211Z,83.80
2023-04-16T23:14:31.522Z,84.22
2023-04-16T23:16:33.008Z,84.09
2023-04-16T23:18:34.601Z,84.05
2023-04-16T23:20:36.092Z,83.32
2023-04-16T23:22:38.056Z,83.87
2023-04-16T23:24:39.564Z,83.37
2023-04-16T23:26:41.070Z,83.96
2023-04-16T23:28:42.583Z,83.27
2023-04-16T23:30:44.033Z,83.65
2023-04-16T23:32:45.635Z,83.19
2023-04-16T23:34:47.142Z,83.85
2023-04-16T23:36:48.596Z,83.65
2023-04-16T23:38:50.081Z,83.55
2023-04-16T23:40:51.585Z,83.18
2023-04-16T23:42:53.067Z,83.27
2023-04-16T23:44:54.514Z,83.86
2023-04-16T23:46:56.133Z,83.47
2023-04-16T23:48:57.744Z,83.21
2023-04-16T23:50:59.402Z,83.72
2023-04-16T23:53:00.869Z,82.82
2023-04-16T23:55:02.521Z,83.12
2023-04-16T23:57:04.142Z,83.41
2023-04-16T23:59:05.885Z,83.28
